Latest Coastal Weather Observations for Port Augusta

IDS60701

Issued at 8:11 pm CST Sunday 24 July 2016 (issued every 10 minutes, with the page automatically refreshed every 10 minutes)

About coastal observations | Map of coastal stations | Coastal observations for SA | Marine services | Other Formats
Station Details ID: 018201 Name: PORT AUGUSTA AERO Lat: -32.51 Lon: 137.72 Height: 13.97 m
Data from the previous 72 hours. | See also: Recent months at Port Augusta
Date/Time
CST
Temp
°C
Wind Pressure Rain since
9am
mm
Weather Cloud Vis
km
Sea
Height
m
Swell
Dir  Spd
kts
Gust
kts
hPa Trend Height
m
Period
s
Dir
24/08:00pm 10.5 WNW 9 11 1018.3 - 0.0 - Partly cloudy 10 - - - -
24/07:30pm 11.1 WSW 10 13 1017.8 - 0.0 - Partly cloudy 10 - - - -
24/07:00pm 12.1 WSW 12 15 1017.2 - 0.0 - Cloudy 10 - - - -
24/06:30pm 12.6 WSW 11 14 1016.8 - 0.0 - Partly cloudy 10 - - - -
24/06:00pm 11.9 W 10 12 1016.2 - 0.0 - Mostly clear 10 - - - -
24/05:30pm 12.9 WSW 14 19 1015.8 - 0.0 - Partly cloudy 10 - - - -
24/05:00pm 14.3 W 18 23 1015.3 - 0.0 - Partly cloudy 10 - - - -
24/04:30pm 15.2 WSW 19 29 1014.8 - 0.0 - Partly cloudy 10 - - - -
24/04:23pm 15.1 WSW 19 29 1014.8 - 0.0 - Partly cloudy 10 - - - -
24/04:00pm 15.5 WSW 20 28 1014.5 - 0.0 - Partly cloudy 10 - - - -
24/03:33pm 15.9 WSW 19 29 1014.0 - 0.0 - Partly cloudy 10 - - - -
24/03:30pm 16.3 WSW 19 26 1014.0 - 0.0 - Partly cloudy 10 - - - -
24/03:00pm 15.4 WSW 15 22 1013.9 - 0.0 - Partly cloudy 10 - - - -
24/02:30pm 13.5 SW 14 17 1014.0 - 0.0 - Partly cloudy 10 - - - -
24/02:00pm 14.6 WSW 19 25 1013.8 - 0.0 - Partly cloudy 10 - - - -
24/01:53pm 15.7 W 19 25 1013.7 - 0.0 - Partly cloudy 10 - - - -
24/01:30pm 14.5 WSW 18 26 1013.8 - 0.0 - Partly cloudy 10 - - - -
24/01:05pm 15.4 W 15 25 1014.0 - 0.0 - Partly cloudy 10 - - - -
24/01:00pm 14.9 W 12 16 1014.1 - 0.0 - Partly cloudy 10 - - - -
24/12:30pm 12.9 W 10 13 1014.7 - 0.0 - Partly cloudy 10 - - - -
24/12:08pm 12.0 WSW 16 26 1014.9 - 0.0 - Partly cloudy 10 - - - -
24/12:00pm 12.4 W 17 26 1014.9 - 0.0 - Cloudy 10 - - - -
24/11:30am 13.7 WNW 16 21 1015.0 - 0.0 - Partly cloudy 10 - - - -
24/11:00am 11.5 WNW 18 24 1015.1 - 0.0 - Partly cloudy 10 - - - -
24/10:30am 12.0 WNW 17 25 1015.1 - 0.0 - Partly cloudy 10 - - - -
24/10:14am 11.7 WNW 19 27 1015.0 - 0.0 - Partly cloudy 10 - - - -
24/10:00am 12.1 NW 19 26 1014.6 - 0.0 - Partly cloudy 10 - - - -
24/09:30am 11.9 NW 19 25 1014.4 - 0.0 - Cloudy 10 - - - -
24/09:18am 11.9 NW 17 27 1014.2 - 0.0 - Cloudy 10 - - - -
24/09:00am 12.1 NW 19 23 1014.0 - 0.0 - Mostly cloudy 10 - - - -
24/08:30am 11.8 NW 17 23 1014.2 - 0.0 - Cloudy 10 - - - -
24/08:00am 11.5 NW 16 21 1013.8 - 0.0 - Cloudy 10 - - - -
24/07:30am 11.1 NNW 13 17 1013.5 - 0.0 - Cloudy 10 - - - -
24/07:00am 10.4 N 9 11 1013.4 - 0.0 - Cloudy 10 - - - -
24/06:30am 10.2 N 8 10 1013.2 - 0.0 - Cloudy 10 - - - -
24/06:00am 10.1 NNW 7 8 1013.4 - 0.0 - Cloudy 10 - - - -
24/05:30am 9.2 NNW 5 6 1013.4 - 0.0 - Partly cloudy 10 - - - -
24/05:00am 9.6 WNW 7 8 1013.6 - 0.0 - Partly cloudy 10 - - - -
24/04:30am 9.8 N 9 11 1013.0 - 0.0 - Cloudy 10 - - - -
24/04:00am 9.7 N 9 12 1013.2 - 0.0 - Cloudy 10 - - - -
24/03:30am 9.2 N 7 9 1013.5 - 0.0 - Cloudy 10 - - - -
24/03:00am 9.0 NNW 4 6 1014.2 - 0.0 - Cloudy 10 - - - -
24/02:30am 8.9 N 4 5 1014.5 - 0.0 - Cloudy 10 - - - -
24/02:00am 8.7 CALM 0 0 1014.8 - 0.0 - Cloudy 10 - - - -
24/01:30am 8.6 WSW 1 3 1015.2 - 0.0 - Cloudy 10 - - - -
24/01:00am 8.7 WSW 3 4 1015.4 - 0.0 - Cloudy 10 - - - -
24/12:30am 8.7 CALM 0 0 1015.9 - 0.0 - Partly cloudy 10 - - - -
24/12:00am 8.7 CALM 0 0 1016.1 - 0.0 - Cloudy 10 - - - -
 
Date/Time
CST
Temp
°C
Wind Pressure Rain since
9am
mm
Weather Cloud Vis
km
Sea
Height
m
Swell
Dir  Spd
kts
Gust
kts
hPa Trend Height
m
Period
s
Dir
23/11:30pm 9.2 SSW 3 3 1016.2 - 0.0 - Partly cloudy 10 - - - -
23/11:00pm 9.2 WSW 5 6 1016.7 - 0.0 - Partly cloudy 10 - - - -
23/10:30pm 10.0 NNW 4 5 1016.7 - 0.0 - Cloudy 10 - - - -
23/10:00pm 10.0 E 4 5 1016.7 - 0.0 - Cloudy 10 - - - -
23/09:30pm 10.3 E 5 6 1016.7 - 0.0 - Cloudy 10 - - - -
23/09:00pm 10.1 E 4 4 1016.8 - 0.0 - Cloudy 10 - - - -
23/08:30pm 10.5 SE 3 3 1016.7 - 0.0 - Cloudy 10 - - - -
23/08:00pm 10.9 SE 5 6 1016.7 - 0.0 - Cloudy 10 - - - -
23/07:30pm 11.2 SE 4 6 1016.8 - 0.0 - Cloudy 10 - - - -
23/07:00pm 11.0 ESE 5 7 1016.5 - 0.0 - Cloudy 10 - - - -
23/06:30pm 11.6 SE 7 8 1016.4 - 0.0 - Cloudy 10 - - - -
23/06:00pm 11.6 SE 7 10 1016.4 - 0.0 - Partly cloudy 10 - - - -
23/05:30pm 12.1 SE 5 8 1016.3 - 0.0 - Partly cloudy 10 - - - -
23/05:00pm 12.9 SSE 7 11 1016.0 - 0.0 - Partly cloudy 10 - - - -
23/04:30pm 14.2 W 7 9 1016.2 - 0.0 - Partly cloudy 10 - - - -
23/04:00pm 14.5 WSW 11 15 1015.8 - 0.0 - - 10 - - - -
23/03:30pm 15.0 WSW 12 17 1015.8 - 0.0 - Partly cloudy 10 - - - -
23/03:00pm 16.1 WSW 12 18 1015.9 - 0.0 - Mostly clear 10 - - - -
23/02:30pm 16.5 WSW 13 17 1015.9 - 0.0 - Partly cloudy 10 - - - -
23/02:00pm 16.3 SW 11 16 1016.1 - 0.0 - Partly cloudy 10 - - - -
23/01:30pm 15.4 WSW 11 15 1016.4 - 0.0 - Partly cloudy 10 - - - -
23/01:00pm 16.3 WSW 12 19 1016.7 - 0.0 - Partly cloudy 10 - - - -
23/12:30pm 16.1 SW 9 15 1017.2 - 0.0 - Partly cloudy 10 - - - -
23/12:00pm 15.2 SW 12 15 1017.4 - 0.0 - Mostly clear 10 - - - -
23/11:30am 14.8 SW 14 18 1017.6 - 0.0 - - 10 - - - -
23/11:00am 14.2 SW 12 18 1017.6 - 0.0 - - 10 - - - -
23/10:30am 13.5 SW 14 18 1017.5 - 0.0 - - 10 - - - -
23/10:00am 12.5 SW 17 22 1017.0 - 0.0 - - 10 - - - -
23/09:30am 11.7 SW 15 19 1016.6 - 0.0 - - 10 - - - -
23/09:00am 10.9 SW 14 19 1016.3 - 0.2 - - 10 - - - -
23/08:53am 10.5 WSW 15 19 1016.2 - 0.2 - - 10 - - - -
23/08:30am 9.0 NNW 3 5 1016.3 - 0.2 - - 10 - - - -
23/08:00am 7.2 NW 2 4 1016.1 - 0.2 - - 10 - - - -
23/07:30am 6.0 N 7 9 1015.6 - 0.2 - - 10 - - - -
23/07:00am 4.5 NE 6 8 1015.2 - 0.2 - - 10 - - - -
23/06:30am 5.2 WNW 4 6 1014.9 - 0.2 - - 10 - - - -
23/06:00am 5.9 NNE 4 4 1014.8 - 0.2 - - 10 - - - -
23/05:30am 4.5 NNW 3 5 1014.7 - 0.2 - Partly cloudy 10 - - - -
23/05:00am 6.4 NNE 5 7 1014.4 - 0.2 - Partly cloudy 10 - - - -
23/04:30am 5.2 NE 5 6 1014.3 - 0.2 - Partly cloudy 10 - - - -
23/04:00am 6.9 NE 3 4 1014.3 - 0.2 - Partly cloudy 10 - - - -
23/03:30am 7.5 N 4 5 1014.3 - 0.2 - Partly cloudy 10 - - - -
23/03:00am 9.0 W 9 10 1014.1 - 0.2 - Cloudy 10 - - - -
23/02:30am 8.4 WNW 7 10 1014.2 - 0.2 - Cloudy 10 - - - -
23/02:00am 8.0 WNW 9 11 1014.2 - 0.2 - Cloudy 10 - - - -
23/01:30am 8.0 NW 9 11 1014.2 - 0.2 - Cloudy 10 - - - -
23/01:00am 8.9 NW 9 11 1014.0 - 0.2 - Cloudy 10 - - - -
23/12:30am 9.4 NNW 10 11 1013.9 - 0.2 - Cloudy 10 - - - -
23/12:00am 7.5 N 9 10 1013.9 - 0.2 - Cloudy 10 - - - -
 
Date/Time
CST
Temp
°C
Wind Pressure Rain since
9am
mm
Weather Cloud Vis
km
Sea
Height
m
Swell
Dir  Spd
kts
Gust
kts
hPa Trend Height
m
Period
s
Dir
22/11:30pm 7.5 NNW 8 9 1013.8 - 0.2 - Partly cloudy 10 - - - -
22/11:00pm 8.1 NNW 8 9 1013.4 - 0.2 - Partly cloudy 10 - - - -
22/10:30pm 10.0 NW 8 11 1013.3 - 0.2 - Cloudy 10 - - - -
22/10:00pm 10.6 NW 11 15 1013.1 - 0.2 - Partly cloudy 10 - - - -
22/09:30pm 11.3 WNW 14 19 1012.9 - 0.2 - Partly cloudy 10 - - - -
22/09:00pm 11.4 W 14 19 1012.4 - 0.2 - - 10 - - - -
22/08:30pm 11.7 WNW 16 21 1011.9 - 0.2 - Partly cloudy 10 - - - -
22/08:04pm 12.0 WNW 19 29 1011.6 - 0.2 - Partly cloudy 10 - - - -
22/08:00pm 11.7 WNW 18 26 1011.5 - 0.2 - Partly cloudy 10 - - - -
22/07:30pm 10.4 WNW 18 29 1011.3 - 0.2 - Partly cloudy 10 - - - -
22/07:15pm 10.5 W 23 33 1011.2 - 0.2 - Partly cloudy 10 - - - -
22/07:00pm 12.7 W 21 32 1010.8 - 0.0 - Partly cloudy 10 - - - -
22/06:59pm 13.6 W 20 29 1010.7 - 0.0 - Partly cloudy 10 - - - -
22/06:42pm 14.1 W 19 30 1010.0 - 0.0 - Partly cloudy 10 - - - -
22/06:30pm 14.1 W 21 28 1009.9 - 0.0 - Partly cloudy 10 - - - -
22/06:13pm 14.7 W 18 31 1009.4 - 0.0 - Partly cloudy 10 - - - -
22/06:00pm 14.8 W 20 29 1009.0 - 0.0 - Cloudy 10 - - - -
22/05:30pm 14.8 WSW 24 35 1008.4 - 0.0 - Cloudy 10 - - - -
22/05:03pm 16.8 W 26 38 1007.5 - 0.0 - Partly cloudy 10 - - - -
22/05:00pm 17.3 W 26 33 1007.4 - 0.0 - Partly cloudy 10 - - - -
22/04:40pm 18.2 W 23 38 1006.8 - 0.0 - Partly cloudy 10 - - - -
22/04:30pm 18.4 W 24 32 1006.6 - 0.0 - Partly cloudy 10 - - - -
22/04:02pm 18.5 W 24 34 1006.3 - 0.0 - Partly cloudy 10 - - - -
22/04:00pm 18.4 W 25 34 1006.2 - 0.0 - - 10 - - - -
22/03:37pm 19.4 W 24 34 1005.9 - 0.0 - - 10 - - - -
22/03:30pm 19.5 WNW 26 33 1005.7 - 0.0 - - 10 - - - -
22/03:02pm 19.7 WNW 25 35 1005.6 - 0.0 - Partly cloudy 10 - - - -
22/03:00pm 19.7 WNW 24 33 1005.8 - 0.0 - Cloudy 10 - - - -
22/02:30pm 19.0 WNW 21 31 1005.8 - 0.0 - Partly cloudy 10 - - - -
22/02:00pm 19.4 WNW 24 34 1005.8 - 0.0 - Partly cloudy 10 - - - -
22/01:46pm 18.8 WNW 21 31 1005.8 - 0.0 - Partly cloudy 10 - - - -
22/01:30pm 18.2 WNW 20 28 1006.1 - 0.0 - Partly cloudy 10 - - - -
22/01:08pm 18.1 WNW 18 29 1005.9 - 0.0 - Partly cloudy 10 - - - -
22/01:00pm 18.2 WNW 20 25 1006.2 - 0.0 - Partly cloudy 10 - - - -
22/12:30pm 17.7 NW 17 23 1006.6 - 0.0 - Partly cloudy 10 - - - -
22/12:00pm 17.1 NNW 17 23 1006.9 - 0.0 - Cloudy 10 - - - -
22/11:30am 16.8 NNW 15 20 1007.1 - 0.0 - - 10 - - - -
22/11:00am 16.4 NNW 13 17 1007.7 - 0.0 - - 10 - - - -
22/10:30am 15.7 N 9 12 1007.9 - 0.0 - - 10 - - - -
22/10:00am 15.4 N 10 13 1007.7 - 0.0 - - 10 - - - -
22/09:30am 15.3 NNW 9 12 1008.5 - 0.0 - Partly cloudy 10 - - - -
22/09:00am 15.1 N 9 11 1008.1 - 0.2 - Cloudy 10 - - - -
22/08:30am 14.6 NNW 7 9 1008.6 - 0.2 - Cloudy 10 - - - -
22/08:00am 14.8 NW 7 8 1008.1 - 0.2 - Partly cloudy 10 - - - -
22/07:30am 15.2 NW 7 9 1007.9 - 0.2 - Partly cloudy 10 - - - -
22/07:00am 15.2 NW 6 7 1007.7 - 0.2 - Cloudy 10 - - - -
22/06:30am 15.8 WNW 7 9 1007.5 - 0.2 - Partly cloudy 10 - - - -
22/06:00am 15.9 WNW 7 11 1006.6 - 0.2 - Cloudy 10 - - - -
22/05:30am 14.5 N 7 8 1006.7 - 0.2 - Partly cloudy 10 - - - -
22/05:00am 14.2 N 6 7 1006.5 - 0.2 - - 10 - - - -
22/04:30am 15.4 WNW 5 7 1006.9 - 0.2 - - 10 - - - -
22/04:00am 15.5 SW 5 6 1007.2 - 0.2 - - 10 - - - -
22/03:30am 16.4 WSW 4 6 1007.1 - 0.2 - - 10 - - - -
22/03:00am 16.6 WSW 6 8 1007.1 - 0.2 - Mostly clear 10 - - - -
22/02:30am 16.6 NW 6 7 1006.9 - 0.2 - Partly cloudy 10 - - - -
22/02:00am 18.3 NW 8 9 1006.9 - 0.2 - Partly cloudy 10 - - - -
22/01:30am 18.7 WNW 13 17 1007.1 - 0.2 - Partly cloudy 10 - - - -
22/01:00am 19.0 N 15 19 1006.2 - 0.2 - Partly cloudy 10 - - - -
22/12:30am 18.9 N 17 21 1006.6 - 0.2 - Partly cloudy 10 - - - -
22/12:00am 18.6 N 16 22 1006.9 - 0.2 - Mostly clear 10 - - - -
 
Date/Time
CST
Temp
°C
Wind Pressure Rain since
9am
mm
Weather Cloud Vis
km
Sea
Height
m
Swell
Dir  Spd
kts
Gust
kts
hPa Trend Height
m
Period
s
Dir
21/11:30pm 18.8 N 16 21 1007.4 - 0.2 - Partly cloudy 10 - - - -
21/11:00pm 18.6 N 13 17 1007.8 - 0.2 - - 10 - - - -
21/10:30pm 18.4 N 9 12 1008.0 - 0.2 - - 10 - - - -
21/10:00pm 18.1 N 9 11 1008.3 - 0.2 - - 10 - - - -
21/09:30pm 17.1 N 6 7 1008.7 - 0.2 - - 10 - - - -
21/09:00pm 16.8 N 1 5 1008.9 - 0.2 - - 10 - - - -
21/08:30pm 17.1 N 6 8 1008.8 - 0.2 - - 10 - - - -

Other Formats:

Comma delimited format used in spreadsheet applications
http://www.bom.gov.au/fwo/IDS60701/IDS60701.95666.axf

JavaScript Object Notation format (JSON) in row-major order
http://www.bom.gov.au/fwo/IDS60701/IDS60701.95666.json